Broome International Airport


Codes: YBRM/BME
Name: Broome International Airport
City: Broome
Country: Australia
Elevation: 56 ft.
Wikipedia:

Photos at Broome International Airport


   Photos courtesy of SpottingLog. You can add your own sightings and photos by signing up for a free trial today.



No photos found.

Weather at Broome International Airport


Time (UTC)DescriptionTempratureWindCloud coverageVisibilityPressureHumidity
16-Jun-2024 12:00Clear Sky25°C9 mph, W1%10000m1014hPa71%
16-Jun-2024 15:00Clear Sky25°C9 mph, SW1%10000m1015hPa71%
16-Jun-2024 18:00Clear Sky24°C7 mph, S1%10000m1015hPa64%
16-Jun-2024 21:00Clear Sky24°C7 mph, SE0%10000m1015hPa53%
17-Jun-2024 00:00Clear Sky23°C11 mph, E0%10000m1016hPa43%
17-Jun-2024 03:00Clear Sky27°C7 mph, NE0%10000m1015hPa45%
17-Jun-2024 06:00Clear Sky25°C11 mph, W0%10000m1013hPa59%
17-Jun-2024 09:00Clear Sky25°C11 mph, NW0%10000m1014hPa71%
17-Jun-2024 12:00Clear Sky25°C11 mph, W1%10000m1016hPa73%
17-Jun-2024 15:00Clear Sky25°C11 mph, SW4%10000m1016hPa74%
17-Jun-2024 18:00Clear Sky23°C9 mph, S3%10000m1015hPa74%
17-Jun-2024 21:00Clear Sky23°C7 mph, SE5%10000m1015hPa59%
18-Jun-2024 00:00Clear Sky23°C9 mph, E4%10000m1016hPa43%
18-Jun-2024 03:00Clear Sky27°C7 mph, E7%10000m1015hPa45%
18-Jun-2024 06:00Clear Sky27°C2 mph, S7%10000m1012hPa47%
18-Jun-2024 09:00Clear Sky24°C11 mph, NW9%10000m1013hPa61%
18-Jun-2024 12:00Clear Sky25°C7 mph, W7%10000m1015hPa64%
18-Jun-2024 15:00Scattered Clouds25°C7 mph, SW32%10000m1015hPa62%
18-Jun-2024 18:00Broken Clouds24°C7 mph, S59%10000m1014hPa60%
18-Jun-2024 21:00Scattered Clouds23°C9 mph, E43%10000m1014hPa57%
19-Jun-2024 00:00Scattered Clouds23°C9 mph, E40%10000m1016hPa42%
19-Jun-2024 03:00Clear Sky26°C2 mph, E3%10000m1015hPa46%
19-Jun-2024 06:00Scattered Clouds25°C11 mph, SW27%10000m1012hPa50%
19-Jun-2024 09:00Scattered Clouds25°C11 mph, SW37%10000m1012hPa63%
19-Jun-2024 12:00Few Clouds25°C4 mph, S21%10000m1014hPa67%
19-Jun-2024 15:00Clear Sky25°C4 mph, E3%10000m1014hPa60%
19-Jun-2024 18:00Clear Sky23°C16 mph, SE5%10000m1014hPa52%
19-Jun-2024 21:00Few Clouds22°C20 mph, SE18%10000m1015hPa61%
20-Jun-2024 00:00Scattered Clouds23°C22 mph, SE40%10000m1017hPa60%
20-Jun-2024 03:00Broken Clouds26°C22 mph, E61%10000m1016hPa49%
20-Jun-2024 06:00Broken Clouds27°C16 mph, SE67%10000m1013hPa48%
20-Jun-2024 09:00Clear Sky27°C16 mph, SE6%10000m1014hPa50%
20-Jun-2024 12:00Clear Sky25°C16 mph, SE5%10000m1016hPa56%
20-Jun-2024 15:00Scattered Clouds24°C20 mph, SE30%10000m1015hPa56%
20-Jun-2024 18:00Scattered Clouds23°C20 mph, SE44%10000m1015hPa55%
20-Jun-2024 21:00Broken Clouds22°C22 mph, SE80%10000m1016hPa51%
21-Jun-2024 00:00Overcast Clouds22°C25 mph, E88%10000m1018hPa52%
21-Jun-2024 03:00Broken Clouds26°C22 mph, E66%10000m1016hPa47%
21-Jun-2024 06:00Scattered Clouds27°C13 mph, E35%10000m1013hPa47%
21-Jun-2024 09:00Broken Clouds27°C11 mph, SE76%10000m1014hPa49%